Impacts TAF Board INFO
FOR SITUATIONAL AWARENESS. NOT TO BE USED FOR FLIGHT PLANNING PURPOSES.
IDs:

KMEM - Memphis Intl, TN, US

Issued at 1739 UTC 16 Aug 2018
Updated at 2019 UTC 16 Aug 2018
Potential Impact None Slight Moderate High
Time1954Z 16/21Z 16/22Z 16/23Z 17/00Z 17/01Z 17/02Z 17/03Z 17/04Z 17/05Z 17/06Z 17/07Z 17/08Z 17/09Z>>
Type OBS PRVL PRVL PRVL PRVL PRVL PRVL PRVL PRVL PRVL PRVL PRVL PRVL PRVL
VIS 10 >6 >6 >6 >6 >6 >6 >6 >6 >6 >6 >6 >6 >6
CIG 100 100 100 100 250 250 250 250 250 250 250 250 250 250
Cover BKN BKN BKN BKN BKN BKN BKN BKN BKN BKN BKN BKN BKN BKN
FltCat VFR VFR VFR VFR VFR VFR VFR VFR VFR VFR VFR VFR VFR VFR
WX -- VCTS VCTS VCTS -- -- -- -- -- -- -- -- -- --
WDir 250 220 220 220 190 190 190 190 190 190 190 190 190 190
WSpd 9 9 9 9 6 6 6 6 6 6 6 6 6 6
WGst -- -- -- -- -- -- -- -- -- -- -- -- -- --

Raw TAF
KMEM 161739Z 1618/1724 14005KT P6SM SCT060 BKN100
  FM162000 22009KT P6SM VCTS SCT050CB BKN100
  FM170000 19006KT P6SM SCT050 BKN250
  FM171000 20006KT P6SM VCTS SCT030 BKN050CB OVC120
  FM171400 22007KT P6SM VCSH SCT050 BKN120
  FM171900 22009KT P6SM VCTS SCT050CB OVC120


Raw METAR
KMEM 161954Z 25009KT 10SM SCT040 BKN100 BKN250 34/25 A3000 RMK AO2 SLP153 T03440250
KMEM 161854Z 21007KT 10SM FEW035 SCT100 BKN250 32/26 A3002 RMK AO2 SLP161 T03220256
KMEM 161754Z 19007KT 10SM FEW060 SCT100 BKN250 30/25 A3006 RMK AO2 SLP174 T03000250 10300 20267 58003

METAR Board
Radar Display
Forecast Discussion

FOR SITUATIONAL AWARENESS. NOT TO BE USED FOR FLIGHT PLANNING PURPOSES.